Time;durP1;ratioP1;P1;durP2;ratioP2;P2;SDS_P1;SDS_P2;PMS_P1;PMS_P2;Temp;Humidity;BMP_temperature;BMP_pressure;BME280_temperature;BME280_humidity;BME280_pressure;Samples;Min_cycle;Max_cycle;Signal;HPM_P1;HPM_P2
2023/05/10 00:00:25;;;;;;;18.40;15.15;;;16.40;99.90;;;;;;4961806;28;94379;-79
2023/05/10 00:02:52;;;;;;;16.98;15.18;;;16.40;99.90;;;;;;4960595;28;95533;-79
2023/05/10 00:05:19;;;;;;;18.88;15.63;;;16.50;99.90;;;;;;4994189;28;92535;-79
2023/05/10 00:07:46;;;;;;;17.10;15.10;;;16.40;99.90;;;;;;4977376;28;96239;-79
2023/05/10 00:10:13;;;;;;;17.52;15.02;;;16.50;99.90;;;;;;4961433;28;95748;-79
2023/05/10 00:12:41;;;;;;;16.67;14.82;;;16.40;99.90;;;;;;4977858;28;92465;-79
2023/05/10 00:15:09;;;;;;;10.68;9.65;;;16.50;99.90;;;;;;4977473;28;92608;-79
2023/05/10 00:17:37;;;;;;;9.23;8.30;;;16.40;99.90;;;;;;4962042;28;95738;-79
2023/05/10 00:20:05;;;;;;;8.65;7.80;;;16.40;99.90;;;;;;4995100;28;92990;-79
2023/05/10 00:22:32;;;;;;;6.80;6.20;;;16.40;99.90;;;;;;4977952;28;98318;-79
2023/05/10 00:24:59;;;;;;;7.15;6.55;;;16.30;99.90;;;;;;4994836;28;92614;-79
2023/05/10 00:27:29;;;;;;;7.70;7.00;;;16.20;99.90;;;;;;4976507;28;98844;-79
2023/05/10 00:29:56;;;;;;;6.63;6.13;;;16.20;99.90;;;;;;4994247;28;98315;-79
2023/05/10 00:32:23;;;;;;;6.45;5.82;;;16.20;99.90;;;;;;4961637;28;92443;-79
2023/05/10 00:34:50;;;;;;;7.05;6.45;;;16.10;99.90;;;;;;4994597;28;92511;-79
2023/05/10 00:37:17;;;;;;;6.95;6.22;;;16.10;99.90;;;;;;4977895;28;95964;-79
2023/05/10 00:39:44;;;;;;;6.55;6.00;;;16.00;99.90;;;;;;4994396;28;94112;-79
2023/05/10 00:42:11;;;;;;;6.57;6.07;;;16.00;99.90;;;;;;4994076;28;92469;-79
2023/05/10 00:44:38;;;;;;;7.10;6.50;;;15.90;99.90;;;;;;4945627;28;91919;-79
2023/05/10 00:47:05;;;;;;;7.72;7.07;;;15.90;99.90;;;;;;4977734;28;95794;-79
2023/05/10 00:49:33;;;;;;;8.07;7.32;;;15.90;99.90;;;;;;4977788;28;94427;-79
2023/05/10 00:52:03;;;;;;;8.57;7.65;;;15.90;99.90;;;;;;4977071;28;94849;-79
2023/05/10 00:54:30;;;;;;;8.38;7.47;;;15.90;99.90;;;;;;4994418;28;92571;-79
2023/05/10 00:56:57;;;;;;;9.38;8.52;;;15.90;99.90;;;;;;4994154;28;94286;-79
2023/05/10 00:59:24;;;;;;;11.35;9.05;;;15.90;99.90;;;;;;4961245;28;95497;-79
2023/05/10 01:01:53;;;;;;;10.18;9.13;;;15.90;99.90;;;;;;4994447;28;92397;-79
2023/05/10 01:04:25;;;;;;;10.02;8.98;;;15.90;99.90;;;;;;4977623;28;92525;-79
2023/05/10 01:06:53;;;;;;;9.75;8.48;;;15.80;99.90;;;;;;4980251;28;96198;-79
2023/05/10 01:09:21;;;;;;;10.35;9.35;;;15.80;99.90;;;;;;4964634;28;95747;-79
2023/05/10 01:11:50;;;;;;;9.10;8.30;;;15.80;99.90;;;;;;4997102;28;92459;-79
2023/05/10 01:14:19;;;;;;;9.90;8.90;;;15.70;99.90;;;;;;4980690;28;92459;-79
2023/05/10 01:16:48;;;;;;;10.50;9.40;;;15.70;99.90;;;;;;4979474;28;98232;-79
2023/05/10 01:19:27;;;;;;;10.02;9.02;;;15.70;99.90;;;;;;5014886;28;99442;-79
2023/05/10 01:22:13;;;;;;;9.77;8.82;;;15.70;99.90;;;;;;5015440;28;92483;-79
2023/05/10 01:24:46;;;;;;;9.18;8.27;;;15.60;99.90;;;;;;4980288;28;92595;-79
2023/05/10 01:27:34;;;;;;;12.40;9.52;;;15.60;99.90;;;;;;4980421;28;95774;-79
2023/05/10 01:30:40;;;;;;;9.80;8.77;;;15.60;99.90;;;;;;4996871;28;96120;-79
2023/05/10 01:33:21;;;;;;;9.90;9.00;;;15.60;99.90;;;;;;4980550;28;92631;-79
2023/05/10 01:36:09;;;;;;;10.68;9.65;;;15.60;99.90;;;;;;4981929;28;91810;-79
2023/05/10 01:38:39;;;;;;;10.13;9.13;;;15.60;99.90;;;;;;4965555;28;96834;-79
2023/05/10 01:41:18;;;;;;;10.63;9.52;;;15.60;99.90;;;;;;4996853;28;95535;-79
2023/05/10 01:43:53;;;;;;;11.15;10.05;;;15.60;99.90;;;;;;4995824;28;94924;-79
2023/05/10 01:46:40;;;;;;;11.10;9.77;;;15.50;99.90;;;;;;4996366;28;92494;-79
2023/05/10 01:49:19;;;;;;;11.88;10.70;;;15.60;99.90;;;;;;4964263;28;95982;-79
2023/05/10 01:51:51;;;;;;;10.57;9.57;;;15.60;99.90;;;;;;4996243;28;95995;-79
2023/05/10 01:54:21;;;;;;;10.63;9.63;;;15.50;99.90;;;;;;4996536;28;92387;-79
2023/05/10 01:56:54;;;;;;;11.43;9.98;;;15.50;99.90;;;;;;4982793;28;92560;-79
2023/05/10 01:59:27;;;;;;;12.02;10.82;;;15.50;99.90;;;;;;4999070;28;95590;-78
2023/05/10 02:01:57;;;;;;;10.55;9.45;;;15.50;99.90;;;;;;4984118;28;95727;-78
2023/05/10 02:04:26;;;;;;;11.88;10.13;;;15.50;99.90;;;;;;4983680;28;92973;-78
2023/05/10 02:06:54;;;;;;;12.32;10.63;;;15.50;99.90;;;;;;4950445;28;92949;-78
2023/05/10 02:09:22;;;;;;;12.88;11.05;;;15.50;99.90;;;;;;4997976;28;98387;-79
2023/05/10 02:11:50;;;;;;;11.02;9.88;;;15.50;99.90;;;;;;4966790;28;98674;-79
2023/05/10 02:14:20;;;;;;;10.93;9.82;;;15.60;99.90;;;;;;4999855;28;93061;-79
2023/05/10 02:16:47;;;;;;;12.10;10.23;;;15.50;99.90;;;;;;4983508;28;92544;-79
2023/05/10 02:19:15;;;;;;;11.60;9.90;;;15.50;99.90;;;;;;4982590;28;95474;-79
2023/05/10 02:21:44;;;;;;;11.30;10.20;;;15.50;99.90;;;;;;4983356;28;96318;-79
2023/05/10 02:24:11;;;;;;;9.93;8.93;;;15.50;99.90;;;;;;4999744;28;92464;-79
2023/05/10 02:26:40;;;;;;;9.45;8.55;;;15.50;99.90;;;;;;4967243;28;91780;-79
2023/05/10 02:29:09;;;;;;;10.40;9.30;;;15.50;99.90;;;;;;4983530;28;93219;-79
2023/05/10 02:31:38;;;;;;;11.45;9.60;;;15.50;99.90;;;;;;4999937;28;94040;-79
2023/05/10 02:34:07;;;;;;;10.70;9.55;;;15.50;99.90;;;;;;4982647;28;94977;-79
2023/05/10 02:36:35;;;;;;;10.32;9.23;;;15.50;99.90;;;;;;4983104;28;92595;-79
2023/05/10 02:39:09;;;;;;;10.38;8.80;;;15.50;99.90;;;;;;4983685;28;94392;-79
2023/05/10 02:41:37;;;;;;;11.55;9.50;;;15.50;99.90;;;;;;4967899;28;95712;-79
2023/05/10 02:44:07;;;;;;;10.50;9.40;;;15.50;99.90;;;;;;4983213;28;92520;-79
2023/05/10 02:46:36;;;;;;;10.55;9.30;;;15.50;99.90;;;;;;4999811;28;92426;-79
2023/05/10 02:49:03;;;;;;;10.20;8.90;;;15.50;99.90;;;;;;5017310;28;94098;-79
2023/05/10 02:51:34;;;;;;;11.60;8.93;;;15.40;99.90;;;;;;4966618;28;95871;-79
2023/05/10 02:54:10;;;;;;;10.52;9.13;;;15.50;99.90;;;;;;4967254;28;92424;-78
2023/05/10 02:56:47;;;;;;;11.90;8.95;;;15.50;99.90;;;;;;4983712;28;92661;-78
2023/05/10 02:59:14;;;;;;;9.35;8.18;;;15.50;99.90;;;;;;4997733;28;98395;-78
2023/05/10 03:01:41;;;;;;;11.38;9.50;;;15.40;99.90;;;;;;4998903;28;96541;-78
2023/05/10 03:04:08;;;;;;;11.00;9.45;;;15.40;99.90;;;;;;4999237;28;92619;-78
2023/05/10 03:06:35;;;;;;;11.35;9.85;;;15.40;99.90;;;;;;4966085;28;92474;-78
2023/05/10 03:09:03;;;;;;;10.30;8.75;;;15.40;99.90;;;;;;4966629;28;95140;-78
2023/05/10 03:11:37;;;;;;;10.63;9.35;;;15.40;99.90;;;;;;4966235;28;95200;-78
2023/05/10 03:14:29;;;;;;;10.82;9.50;;;15.50;99.90;;;;;;4999134;28;93177;-78
2023/05/10 03:17:07;;;;;;;13.32;9.82;;;15.50;99.90;;;;;;4999545;28;92017;-78
2023/05/10 03:19:47;;;;;;;11.70;9.15;;;15.40;99.90;;;;;;4982031;28;96171;-78
2023/05/10 03:22:25;;;;;;;10.80;9.05;;;15.50;99.90;;;;;;4998823;28;95336;-79
2023/05/10 03:24:56;;;;;;;11.38;9.07;;;15.40;99.90;;;;;;4997459;28;94860;-79
2023/05/10 03:27:26;;;;;;;11.70;9.70;;;15.40;99.90;;;;;;4999044;28;92610;-78
2023/05/10 03:29:55;;;;;;;11.98;9.52;;;15.40;99.90;;;;;;4982161;28;96622;-78
2023/05/10 03:32:23;;;;;;;9.85;8.65;;;15.40;99.90;;;;;;4966204;28;95523;-78
2023/05/10 03:34:50;;;;;;;12.20;9.93;;;15.40;99.90;;;;;;4982021;28;92533;-78
2023/05/10 03:37:17;;;;;;;11.88;9.13;;;15.40;99.90;;;;;;4982492;28;92514;-78
2023/05/10 03:39:44;;;;;;;10.13;8.95;;;15.40;99.90;;;;;;4982125;28;93126;-78
2023/05/10 03:42:12;;;;;;;11.57;9.18;;;15.40;99.90;;;;;;4949973;28;95674;-78
2023/05/10 03:44:39;;;;;;;11.75;9.85;;;15.40;99.90;;;;;;4981885;28;93057;-78
2023/05/10 03:47:08;;;;;;;10.73;9.35;;;15.40;99.90;;;;;;4966222;28;92508;-78
2023/05/10 03:49:35;;;;;;;11.02;9.77;;;15.40;99.90;;;;;;4964300;28;98313;-78
2023/05/10 03:52:02;;;;;;;9.85;8.85;;;15.40;99.90;;;;;;4981868;28;97961;-78
2023/05/10 03:54:30;;;;;;;9.40;8.45;;;15.50;99.90;;;;;;4998315;28;92586;-78
2023/05/10 03:56:58;;;;;;;12.30;9.75;;;15.50;99.90;;;;;;4965668;28;92449;-78
2023/05/10 03:59:25;;;;;;;11.15;8.88;;;15.40;99.90;;;;;;4981725;28;95904;-78
2023/05/10 04:01:52;;;;;;;10.27;9.10;;;15.40;99.90;;;;;;4981350;28;94297;-78
2023/05/10 04:04:21;;;;;;;11.43;9.25;;;15.40;99.90;;;;;;4965605;28;92471;-78
2023/05/10 04:06:49;;;;;;;11.10;10.00;;;15.40;99.90;;;;;;4965997;28;91796;-79
2023/05/10 04:09:16;;;;;;;11.20;8.90;;;15.40;99.90;;;;;;4980842;28;95775;-79
2023/05/10 04:11:43;;;;;;;11.20;9.35;;;15.40;99.90;;;;;;4981495;28;96183;-79
2023/05/10 04:14:10;;;;;;;12.75;10.55;;;15.40;99.90;;;;;;4997074;28;94771;-79
2023/05/10 04:16:37;;;;;;;10.95;9.82;;;15.40;99.90;;;;;;4964481;28;92637;-79
2023/05/10 04:19:04;;;;;;;12.50;9.60;;;15.40;99.90;;;;;;4997347;28;93543;-79
2023/05/10 04:21:31;;;;;;;10.77;9.73;;;15.40;99.90;;;;;;4965130;28;95719;-79
2023/05/10 04:23:58;;;;;;;11.38;9.30;;;15.40;99.90;;;;;;4997758;28;92628;-79
2023/05/10 04:26:25;;;;;;;10.63;9.52;;;15.40;99.90;;;;;;4965325;28;92578;-79
2023/05/10 04:28:52;;;;;;;10.77;9.65;;;15.40;99.90;;;;;;4964785;28;96292;-79
2023/05/10 04:31:19;;;;;;;10.68;9.55;;;15.40;99.90;;;;;;4965680;28;95555;-79
2023/05/10 04:33:46;;;;;;;11.85;9.88;;;15.40;99.90;;;;;;4964811;28;92505;-79
2023/05/10 04:36:13;;;;;;;10.57;9.27;;;15.40;99.90;;;;;;4981345;28;92552;-79
2023/05/10 04:38:40;;;;;;;12.23;10.02;;;15.40;99.90;;;;;;4996015;28;98126;-79
2023/05/10 04:41:08;;;;;;;10.80;9.20;;;15.40;99.90;;;;;;4948007;28;98136;-79
2023/05/10 04:43:36;;;;;;;10.60;9.48;;;15.40;99.90;;;;;;4981217;28;92597;-79
2023/05/10 04:46:03;;;;;;;12.27;10.18;;;15.40;99.90;;;;;;4981270;28;92531;-79
2023/05/10 04:48:30;;;;;;;10.85;9.52;;;15.50;99.90;;;;;;4980585;28;95938;-79
2023/05/10 04:50:57;;;;;;;9.95;8.88;;;15.40;99.90;;;;;;4980743;28;95832;-79
2023/05/10 04:53:24;;;;;;;9.45;8.38;;;15.40;99.90;;;;;;4981269;28;92471;-79
2023/05/10 04:55:51;;;;;;;10.07;9.07;;;15.40;99.90;;;;;;4965056;28;91847;-80
2023/05/10 04:58:18;;;;;;;8.18;7.22;;;15.40;99.90;;;;;;4997343;28;94112;-79
2023/05/10 05:00:45;;;;;;;8.77;7.97;;;15.40;99.90;;;;;;4981226;28;93032;-79
2023/05/10 05:03:12;;;;;;;8.15;7.38;;;15.40;99.90;;;;;;4996429;28;94838;-79
2023/05/10 05:05:39;;;;;;;7.78;6.97;;;15.40;99.90;;;;;;4964805;28;92484;-79
2023/05/10 05:08:06;;;;;;;8.02;7.32;;;15.40;99.90;;;;;;4964168;28;94708;-79
2023/05/10 05:10:33;;;;;;;7.43;6.72;;;15.40;99.90;;;;;;4964555;28;96199;-79
2023/05/10 05:13:00;;;;;;;7.35;6.55;;;15.40;99.90;;;;;;4964654;28;92475;-79
2023/05/10 05:15:27;;;;;;;7.90;7.03;;;15.40;99.90;;;;;;4997232;28;92615;-79
2023/05/10 05:17:54;;;;;;;7.60;6.90;;;15.40;99.90;;;;;;4980755;28;94515;-78
2023/05/10 05:20:21;;;;;;;7.85;7.05;;;15.40;99.90;;;;;;4997509;28;93921;-79
2023/05/10 05:22:48;;;;;;;7.25;6.55;;;15.40;99.90;;;;;;4980832;28;92564;-79
2023/05/10 05:25:15;;;;;;;7.78;7.07;;;15.50;99.90;;;;;;4981214;28;92485;-79
2023/05/10 05:27:42;;;;;;;6.97;6.38;;;15.50;99.90;;;;;;4963129;28;98559;-79
2023/05/10 05:30:10;;;;;;;7.05;6.35;;;15.50;99.90;;;;;;5014920;28;95482;-79
2023/05/10 05:32:36;;;;;;;7.32;6.60;;;15.50;99.90;;;;;;4968090;28;92589;-79
2023/05/10 05:35:04;;;;;;;7.80;7.10;;;15.50;99.90;;;;;;4967686;28;93021;-79
2023/05/10 05:37:31;;;;;;;6.85;6.20;;;15.50;99.90;;;;;;5000628;28;92529;-78
2023/05/10 05:40:01;;;;;;;7.28;6.50;;;15.50;99.90;;;;;;4999954;28;95680;-78
2023/05/10 05:42:27;;;;;;;6.13;5.63;;;15.50;99.90;;;;;;5000763;28;92505;-78
2023/05/10 05:44:54;;;;;;;6.38;5.78;;;15.50;99.90;;;;;;4984203;28;91793;-78
2023/05/10 05:47:21;;;;;;;7.60;6.20;;;15.50;99.90;;;;;;5000288;28;94339;-78
2023/05/10 05:49:48;;;;;;;7.97;6.75;;;15.50;99.90;;;;;;4983882;28;93418;-78
2023/05/10 05:52:15;;;;;;;7.60;5.82;;;15.50;99.90;;;;;;4982267;28;100685;-79
2023/05/10 05:54:43;;;;;;;6.28;5.68;;;15.40;99.90;;;;;;4984160;28;92533;-78
2023/05/10 05:57:10;;;;;;;6.35;5.72;;;15.40;99.90;;;;;;4983353;28;96418;-78
2023/05/10 05:59:41;;;;;;;6.50;5.88;;;15.40;99.90;;;;;;5000568;28;92992;-78
2023/05/10 06:02:09;;;;;;;6.13;5.63;;;15.40;99.90;;;;;;5000127;28;92481;-79
2023/05/10 06:04:36;;;;;;;7.88;6.15;;;15.40;99.90;;;;;;5000476;28;92489;-79
2023/05/10 06:07:03;;;;;;;6.90;6.20;;;15.30;99.90;;;;;;4983084;28;95961;-79
2023/05/10 06:09:30;;;;;;;6.70;6.07;;;15.40;99.90;;;;;;5018354;28;93831;-79
2023/05/10 06:11:57;;;;;;;6.20;5.60;;;15.40;99.90;;;;;;5000256;28;92482;-78
2023/05/10 06:14:24;;;;;;;7.55;6.05;;;15.40;99.90;;;;;;4999900;28;92609;-78
2023/05/10 06:16:51;;;;;;;6.57;5.60;;;15.40;99.90;;;;;;4949767;28;98379;-79
2023/05/10 06:19:18;;;;;;;5.15;4.75;;;15.40;99.90;;;;;;4983472;28;95442;-79
2023/05/10 06:21:45;;;;;;;5.05;4.65;;;15.40;99.90;;;;;;5000183;28;92478;-79
2023/05/10 06:24:12;;;;;;;6.07;5.05;;;15.40;99.90;;;;;;4982772;28;92529;-79
2023/05/10 06:26:39;;;;;;;4.88;4.47;;;15.40;99.90;;;;;;4983407;28;95528;-79
2023/05/10 06:29:06;;;;;;;5.30;4.80;;;15.40;99.90;;;;;;4983160;28;95473;-79
2023/05/10 06:31:33;;;;;;;5.32;4.78;;;15.50;99.90;;;;;;5000142;28;92474;-79
2023/05/10 06:34:00;;;;;;;4.90;4.07;;;15.50;99.90;;;;;;4999985;28;91721;-79
2023/05/10 06:36:27;;;;;;;4.68;4.28;;;15.50;99.90;;;;;;4983003;28;95786;-79
2023/05/10 06:38:54;;;;;;;5.45;4.50;;;15.50;99.90;;;;;;4983090;28;92968;-79
2023/05/10 06:41:21;;;;;;;5.50;4.95;;;15.40;99.90;;;;;;4981445;28;94855;-79
2023/05/10 06:43:50;;;;;;;5.03;4.63;;;15.40;99.90;;;;;;4967464;28;92942;-78
2023/05/10 06:46:17;;;;;;;4.88;4.47;;;15.40;99.90;;;;;;4999222;28;95863;-78
2023/05/10 06:48:44;;;;;;;4.50;4.07;;;15.40;99.90;;;;;;4999373;28;96025;-78
2023/05/10 06:51:11;;;;;;;4.15;3.75;;;15.40;99.90;;;;;;4998749;28;104116;-79
2023/05/10 06:53:38;;;;;;;3.65;3.35;;;15.40;99.90;;;;;;4999684;28;92727;-79
2023/05/10 06:56:05;;;;;;;3.83;3.53;;;15.40;99.90;;;;;;4998919;28;96399;-79
2023/05/10 06:58:32;;;;;;;3.55;3.20;;;15.50;99.90;;;;;;4967002;28;93040;-79
2023/05/10 07:01:03;;;;;;;4.07;3.78;;;15.50;99.90;;;;;;4982468;28;92526;-78
2023/05/10 07:03:31;;;;;;;3.55;3.25;;;15.60;99.90;;;;;;4999813;28;92519;-78
2023/05/10 07:06:03;;;;;;;3.70;3.42;;;15.60;99.90;;;;;;4997447;28;98221;-79
2023/05/10 07:08:33;;;;;;;3.25;3.05;;;15.70;99.90;;;;;;4981838;28;97946;-78
2023/05/10 07:11:05;;;;;;;3.30;3.00;;;15.70;99.90;;;;;;4982689;28;92518;-78
2023/05/10 07:13:32;;;;;;;3.35;3.05;;;15.60;99.90;;;;;;4982506;28;92523;-78
2023/05/10 07:16:00;;;;;;;4.22;2.90;;;15.60;99.90;;;;;;4999090;28;94550;-78
2023/05/10 07:18:27;;;;;;;3.35;3.05;;;15.60;99.90;;;;;;5016949;28;96772;-78
2023/05/10 07:20:54;;;;;;;3.13;2.92;;;15.70;99.90;;;;;;4999414;28;92504;-78
2023/05/10 07:23:21;;;;;;;3.13;2.92;;;15.70;99.90;;;;;;4999288;28;91770;-78
2023/05/10 07:25:51;;;;;;;2.80;2.60;;;15.70;99.90;;;;;;4998739;28;94365;-78
2023/05/10 07:28:19;;;;;;;3.75;2.10;;;15.80;99.90;;;;;;4999314;28;93083;-78
2023/05/10 07:30:46;;;;;;;2.15;2.05;;;15.70;99.90;;;;;;4965224;28;95027;-78
2023/05/10 07:33:14;;;;;;;1.00;1.00;;;15.70;99.90;;;;;;4998435;28;92584;-78
2023/05/10 07:35:42;;;;;;;1.42;0.82;;;15.80;99.90;;;;;;4965829;28;96501;-78
2023/05/10 07:38:10;;;;;;;3.60;1.30;;;15.80;99.90;;;;;;4998519;28;94447;-78
2023/05/10 07:40:38;;;;;;;0.82;0.82;;;15.80;99.90;;;;;;4966350;28;93113;-79
2023/05/10 07:43:05;;;;;;;0.57;0.50;;;15.80;99.90;;;;;;4982110;28;92573;-78
2023/05/10 07:45:33;;;;;;;0.50;0.50;;;15.90;99.90;;;;;;4982049;28;96406;-78
2023/05/10 07:48:00;;;;;;;0.70;0.70;;;16.00;99.90;;;;;;4998841;28;95731;-78
2023/05/10 07:50:28;;;;;;;0.75;0.50;;;16.10;99.90;;;;;;4998702;28;92523;-78
2023/05/10 07:52:55;;;;;;;0.43;0.43;;;16.10;99.90;;;;;;4981598;28;92634;-78
2023/05/10 07:55:22;;;;;;;1.00;0.70;;;16.30;99.90;;;;;;4980097;28;95818;-78
2023/05/10 07:57:49;;;;;;;0.40;0.40;;;16.20;99.90;;;;;;4982092;28;95525;-78
2023/05/10 08:00:20;;;;;;;0.50;0.50;;;16.30;99.90;;;;;;4998371;28;92381;-78
2023/05/10 08:02:47;;;;;;;0.73;0.73;;;16.40;99.90;;;;;;5016457;28;92402;-78
2023/05/10 08:05:14;;;;;;;0.70;0.70;;;16.40;99.90;;;;;;4998234;28;93364;-78
2023/05/10 08:07:42;;;;;;;1.27;1.00;;;16.60;99.90;;;;;;5015625;28;93834;-79
2023/05/10 08:10:11;;;;;;;0.70;0.70;;;16.70;99.90;;;;;;4998392;28;92621;-78
2023/05/10 08:12:38;;;;;;;1.80;0.60;;;16.80;99.90;;;;;;4982336;28;91781;-78
2023/05/10 08:15:06;;;;;;;0.60;0.60;;;16.90;99.90;;;;;;4998041;28;93416;-79
2023/05/10 08:17:34;;;;;;;0.38;0.38;;;17.00;99.90;;;;;;4965407;28;95302;-79
2023/05/10 08:20:01;;;;;;;0.30;0.30;;;17.10;99.90;;;;;;4997166;28;94892;-79
2023/05/10 08:22:28;;;;;;;0.40;0.40;;;17.20;99.90;;;;;;4981287;28;92546;-79
2023/05/10 08:24:55;;;;;;;0.45;0.30;;;17.30;99.90;;;;;;4981694;28;94519;-79
2023/05/10 08:27:22;;;;;;;0.50;0.50;;;17.40;99.90;;;;;;4964602;28;95834;-79
2023/05/10 08:29:49;;;;;;;0.43;0.43;;;17.40;99.90;;;;;;4981340;28;92521;-79
2023/05/10 08:32:17;;;;;;;0.50;0.50;;;17.50;99.90;;;;;;4998217;28;92599;-79
2023/05/10 08:34:44;;;;;;;0.68;0.68;;;17.60;99.90;;;;;;4965281;28;95928;-79
2023/05/10 08:37:12;;;;;;;0.77;0.77;;;17.50;99.90;;;;;;4981492;28;95410;-79
2023/05/10 08:39:40;;;;;;;0.68;0.68;;;17.50;99.90;;;;;;4981403;28;92617;-79
2023/05/10 08:42:09;;;;;;;1.02;0.90;;;17.50;99.90;;;;;;4965446;28;92471;-79
2023/05/10 08:44:36;;;;;;;1.50;1.38;;;17.40;99.90;;;;;;4979168;28;107151;-79
2023/05/10 08:47:07;;;;;;;1.60;1.50;;;17.30;99.90;;;;;;4997319;28;98264;-79
2023/05/10 08:49:34;;;;;;;2.13;1.83;;;17.20;99.90;;;;;;4965218;28;92651;-79
2023/05/10 08:52:05;;;;;;;2.10;2.00;;;17.10;99.90;;;;;;5015766;28;92445;-79
2023/05/10 08:54:33;;;;;;;2.00;1.90;;;17.10;99.90;;;;;;4964574;28;96449;-79
2023/05/10 08:57:00;;;;;;;2.38;2.17;;;17.10;99.90;;;;;;4997405;28;95874;-79
2023/05/10 08:59:28;;;;;;;2.72;2.55;;;17.10;99.90;;;;;;5015712;28;92441;-79
2023/05/10 09:01:58;;;;;;;2.78;2.60;;;17.00;99.90;;;;;;4981637;28;91752;-79
2023/05/10 09:04:25;;;;;;;3.10;2.90;;;17.00;99.90;;;;;;4996910;28;95701;-79
2023/05/10 09:06:53;;;;;;;3.20;3.00;;;17.00;99.90;;;;;;4997003;28;94615;-79
2023/05/10 09:09:21;;;;;;;3.45;3.22;;;17.10;99.90;;;;;;4979518;28;95355;-79
2023/05/10 09:11:49;;;;;;;3.00;2.80;;;17.20;99.90;;;;;;4981397;28;92459;-79
2023/05/10 09:14:17;;;;;;;2.90;2.70;;;17.30;99.90;;;;;;5015229;28;93173;-79
2023/05/10 09:16:44;;;;;;;3.00;2.80;;;17.40;99.90;;;;;;4997579;28;93050;-79
2023/05/10 09:19:11;;;;;;;3.90;3.60;;;17.30;99.90;;;;;;4981092;28;92497;-79
2023/05/10 09:21:38;;;;;;;3.40;3.20;;;17.30;99.90;;;;;;4980500;28;92518;-79
2023/05/10 09:24:07;;;;;;;3.70;3.45;;;17.30;99.90;;;;;;4980795;28;95851;-79
2023/05/10 09:26:35;;;;;;;3.72;3.40;;;17.30;99.90;;;;;;4964483;28;95066;-79
2023/05/10 09:29:03;;;;;;;4.22;3.92;;;17.20;99.90;;;;;;4980806;28;92425;-79
2023/05/10 09:31:56;;;;;;;4.40;3.97;;;17.20;99.90;;;;;;4997383;28;92478;-79
2023/05/10 09:34:34;;;;;;;3.50;3.30;;;17.30;99.90;;;;;;4995269;28;98445;-79
2023/05/10 09:37:04;;;;;;;3.47;3.28;;;17.40;99.90;;;;;;4996907;28;97780;-79
2023/05/10 09:39:32;;;;;;;3.80;3.45;;;17.50;99.90;;;;;;4997024;28;92516;-80
2023/05/10 09:42:03;;;;;;;3.47;3.17;;;17.90;99.90;;;;;;4997466;28;92428;-79
2023/05/10 09:44:32;;;;;;;3.28;3.08;;;18.10;99.90;;;;;;4980829;28;95771;-79
2023/05/10 09:47:02;;;;;;;2.95;2.75;;;18.20;99.90;;;;;;4980448;28;95562;-79
2023/05/10 09:49:31;;;;;;;2.95;2.75;;;18.30;99.90;;;;;;4997763;28;92608;-79
2023/05/10 09:52:06;;;;;;;3.10;2.90;;;18.50;99.90;;;;;;4997287;28;92698;-79
2023/05/10 09:54:34;;;;;;;3.00;2.80;;;18.70;99.90;;;;;;4980491;28;93159;-79
2023/05/10 09:57:01;;;;;;;3.20;2.90;;;18.90;99.90;;;;;;4980092;28;100280;-79
2023/05/10 09:59:29;;;;;;;3.03;2.83;;;19.10;99.90;;;;;;4979010;28;94991;-79
2023/05/10 10:01:57;;;;;;;2.75;2.55;;;19.20;99.90;;;;;;4997212;28;92617;-79
2023/05/10 10:04:25;;;;;;;3.00;2.80;;;19.40;99.90;;;;;;5014457;28;93171;-79
2023/05/10 10:07:04;;;;;;;3.78;3.47;;;19.50;99.90;;;;;;4996634;28;95836;-79
2023/05/10 10:09:31;;;;;;;2.90;2.60;;;19.50;99.90;;;;;;4996496;28;92431;-79
2023/05/10 10:12:00;;;;;;;2.75;2.45;;;19.30;99.90;;;;;;4980263;28;92556;-79
2023/05/10 10:14:28;;;;;;;2.72;2.53;;;19.30;99.90;;;;;;4996364;28;93326;-80
2023/05/10 10:16:55;;;;;;;2.97;2.22;;;19.40;99.90;;;;;;4981474;28;93997;-80
2023/05/10 10:19:36;;;;;;;2.47;2.15;;;19.60;99.90;;;;;;4999968;28;92530;-80
2023/05/10 10:22:04;;;;;;;2.45;2.20;;;20.00;99.90;;;;;;4983509;28;92496;-79
2023/05/10 10:24:31;;;;;;;2.90;2.70;;;20.10;99.90;;;;;;4981543;28;107630;-79
2023/05/10 10:27:24;;;;;;;2.63;2.42;;;20.20;99.90;;;;;;4983077;28;97956;-79
2023/05/10 10:29:57;;;;;;;2.93;2.73;;;20.20;99.90;;;;;;5000055;28;92503;-79
2023/05/10 10:32:35;;;;;;;3.80;2.93;;;20.10;99.90;;;;;;5000421;28;92428;-79
2023/05/10 10:35:03;;;;;;;3.40;3.10;;;20.10;99.90;;;;;;5017804;28;93414;-79
2023/05/10 10:37:45;;;;;;;3.25;2.97;;;19.90;99.90;;;;;;4982894;28;95935;-79
2023/05/10 10:40:32;;;;;;;3.88;3.58;;;19.90;99.90;;;;;;4999640;28;92433;-79
2023/05/10 10:43:25;;;;;;;4.30;3.90;;;19.70;99.90;;;;;;5017926;28;91615;-79
2023/05/10 10:46:14;;;;;;;3.13;2.80;;;19.80;99.90;;;;;;5007389;28;94140;-79
2023/05/10 10:48:48;;;;;;;3.20;3.00;;;19.80;99.90;;;;;;4982728;28;95559;-79
2023/05/10 10:51:15;;;;;;;3.33;3.03;;;19.90;99.90;;;;;;4981901;28;94837;-80
2023/05/10 10:53:43;;;;;;;2.90;2.70;;;20.00;99.90;;;;;;4999546;28;93032;-80
2023/05/10 10:56:13;;;;;;;3.20;2.90;;;20.10;99.90;;;;;;4999531;28;93361;-80
2023/05/10 10:58:41;;;;;;;3.05;2.85;;;20.10;99.90;;;;;;4999781;28;93039;-80
2023/05/10 11:01:15;;;;;;;3.33;3.03;;;20.10;99.90;;;;;;4983111;28;92456;-80
2023/05/10 11:03:58;;;;;;;3.78;3.47;;;20.10;99.90;;;;;;4998984;28;92521;-80
2023/05/10 11:06:31;;;;;;;3.65;3.35;;;20.00;99.90;;;;;;4982918;28;95486;-79
2023/05/10 11:09:09;;;;;;;3.70;3.50;;;19.90;99.90;;;;;;4967422;28;91668;-79
2023/05/10 11:11:51;;;;;;;4.00;3.60;;;19.80;99.90;;;;;;4983208;28;92959;-79
2023/05/10 11:14:22;;;;;;;4.10;3.80;;;19.70;99.90;;;;;;4999133;28;92545;-79
2023/05/10 11:16:50;;;;;;;3.92;3.60;;;19.40;99.90;;;;;;4981319;28;95622;-79
2023/05/10 11:19:18;;;;;;;5.10;4.65;;;19.20;99.90;;;;;;5016865;28;94220;-79
2023/05/10 11:21:47;;;;;;;4.80;4.30;;;19.10;99.90;;;;;;4982400;28;92476;-79
2023/05/10 11:24:19;;;;;;;4.93;4.45;;;19.10;99.90;;;;;;4999442;28;92551;-79
2023/05/10 11:26:49;;;;;;;4.20;3.88;;;19.10;99.90;;;;;;5016658;28;93324;-79
2023/05/10 11:29:16;;;;;;;5.43;5.00;;;19.10;99.90;;;;;;4998800;28;96162;-79
2023/05/10 11:31:45;;;;;;;4.78;4.38;;;19.20;99.90;;;;;;5016584;28;95045;-79
2023/05/10 11:34:22;;;;;;;4.95;4.55;;;19.20;99.90;;;;;;5017143;28;91669;-79
2023/05/10 11:36:54;;;;;;;5.75;5.22;;;19.20;99.90;;;;;;4981842;28;96371;-79
2023/05/10 11:39:25;;;;;;;5.45;4.95;;;19.10;99.90;;;;;;4998163;28;95965;-79
2023/05/10 11:41:52;;;;;;;5.55;5.05;;;19.10;99.90;;;;;;4981926;28;95557;-79
2023/05/10 11:44:19;;;;;;;6.18;5.57;;;19.10;99.90;;;;;;4998622;28;92424;-79
2023/05/10 11:46:46;;;;;;;6.22;4.78;;;19.10;99.90;;;;;;4982288;28;93134;-79
2023/05/10 11:49:13;;;;;;;5.32;4.82;;;19.20;99.90;;;;;;4998865;28;93348;-79
2023/05/10 11:51:43;;;;;;;5.78;5.28;;;19.40;99.90;;;;;;4998693;28;92534;-79
2023/05/10 11:54:11;;;;;;;5.00;4.60;;;19.50;99.90;;;;;;4998643;28;92807;-79
2023/05/10 11:56:39;;;;;;;5.63;5.00;;;19.60;99.90;;;;;;5016231;28;93365;-79
2023/05/10 11:59:07;;;;;;;5.68;5.10;;;19.70;99.90;;;;;;4982697;28;95352;-79
2023/05/10 12:01:38;;;;;;;6.35;5.75;;;19.70;99.90;;;;;;4998622;28;93469;-79
2023/05/10 12:04:05;;;;;;;6.45;5.85;;;19.70;99.90;;;;;;5016325;28;92519;-79
2023/05/10 12:06:40;;;;;;;6.75;5.45;;;19.70;99.90;;;;;;4964292;28;98150;-79
2023/05/10 12:09:08;;;;;;;5.63;5.13;;;19.90;99.90;;;;;;4997939;28;95811;-79
2023/05/10 12:11:38;;;;;;;6.35;5.45;;;19.80;99.90;;;;;;5016423;28;92329;-79
2023/05/10 12:14:08;;;;;;;;;;;19.90;99.90;;;;;;5016953;28;92344;-79
2023/05/10 12:16:35;;;;;;;5.85;5.35;;;19.80;99.90;;;;;;4999120;28;97053;-79
2023/05/10 12:19:02;;;;;;;6.00;5.50;;;19.90;99.90;;;;;;4980983;28;95657;-79
2023/05/10 12:21:33;;;;;;;6.15;5.30;;;20.00;99.90;;;;;;4981541;28;92534;-79
2023/05/10 12:24:03;;;;;;;5.05;4.57;;;19.90;99.90;;;;;;5016602;28;91924;-79
2023/05/10 12:26:30;;;;;;;5.20;4.72;;;19.90;99.90;;;;;;4997894;28;96017;-79
2023/05/10 12:29:16;;;;;;;5.55;4.72;;;19.90;99.90;;;;;;4964975;28;95544;-79
2023/05/10 12:31:55;;;;;;;5.68;4.63;;;19.90;99.90;;;;;;4996650;28;94748;-79
2023/05/10 12:34:26;;;;;;;5.18;4.68;;;19.90;99.90;;;;;;4965457;28;92548;-79
2023/05/10 12:36:54;;;;;;;4.95;4.45;;;20.00;99.90;;;;;;4997484;28;96162;-79
2023/05/10 12:39:21;;;;;;;5.40;4.90;;;20.00;99.90;;;;;;4980790;28;94609;-79
2023/05/10 12:41:48;;;;;;;5.35;4.85;;;19.90;99.90;;;;;;4997339;28;92516;-79
2023/05/10 12:44:15;;;;;;;6.07;5.07;;;19.90;99.90;;;;;;4981221;28;92579;-79
2023/05/10 12:46:42;;;;;;;5.50;5.00;;;19.80;99.90;;;;;;4964822;28;95849;-79
2023/05/10 12:49:09;;;;;;;6.53;5.05;;;19.70;99.90;;;;;;4981395;28;94937;-79
2023/05/10 12:51:36;;;;;;;5.88;4.70;;;19.50;99.90;;;;;;4997906;28;92371;-79
2023/05/10 12:54:03;;;;;;;6.30;5.53;;;19.30;99.90;;;;;;4964497;28;92580;-80